KMRT

Union County Airport

Marysville, Ohio, USA
METAR KMRT 201515Z AUTO 22016G24KT 10SM SCT095 SCT120 18/14 A3012 RMK AO2 T01780142
Observed Flight Rules
Feb-20 @ 15:15 UTC (2 hours ago) Visual Flight Rules
Wind Visibility Clouds
220° at 16 knots
 Gusting to 24 knots
10 miles
  • Scattered at 9,500' AGL
  • Scattered at 12,000' AGL
Temperatures Readings
Current 18°C / 64°F
Dewpoint 14°C / 57°F
Humidity 78%
Altimeter 30.12" Hg
Pressure 1020 hPa
Elevation 312
METAR KMRT 201515Z AUTO 22016G24KT 10SM SCT095 SCT120 18/14 A3012 RMK AO2 T01780142
Observed Flight Rules
Feb-20 @ 15:15 UTC
(2 hours ago)
VFR
Wind Visibility
220° at 16 knots
 Gusting to 24 knots
10 miles
Clouds
  • Scattered at 9,500' AGL
  • Scattered at 12,000' AGL
Temperature Dewpoint
18°C / 64°F 14°C / 57°F
Humidity Altimeter Pressure
78% 30.12" Hg 1020 hPa